.
WxDataArchive / Data Records for 2011-04-12
2011-04-11 April 2011 2011-04-13

Data Records for Tuesday, 12 April 2011

Time	Temp	Chill	HIndex	Humid	Dewpt	 Wind 	HiWind	WindDir	Rain 	Barom 
-----	----	-----	------	-----	-----	------	------	-------	-----	----- 
00:00	50.1	50.1	50.1	70	40.7	1	3	0	0.00	29.811 
00:05	49.9	49.9	49.9	69	40.1	0	2	22	0.00	29.811 
00:10	49.9	49.9	49.9	69	40.1	0	2	22	0.00	29.811 
00:15	49.9	49.9	49.9	69	40.1	0	3	338	0.00	29.810 
00:20	49.9	49.9	49.9	69	40.1	1	9	135	0.00	29.810 
00:25	49.8	49.8	49.8	69	40.0	0	2	135	0.00	29.810 
00:30	49.8	49.8	49.8	69	40.0	0	3	90	0.00	29.810 
00:35	49.5	49.5	49.5	69	39.8	0	3	45	0.00	29.810 
00:40	49.4	49.4	49.4	70	40.0	0	2	45	0.00	29.810 
00:45	49.2	49.2	49.2	70	39.8	0	2	45	0.00	29.811 
00:50	48.9	48.9	48.9	71	39.9	0	3	270	0.00	29.811 
00:55	48.8	48.8	48.8	71	39.8	0	2	270	0.00	29.811 
01:00	48.6	48.6	48.6	71	39.6	1	3	45	0.00	29.821 
01:05	48.6	48.6	48.6	71	39.6	0	3	45	0.00	29.821 
01:10	48.6	48.6	48.6	71	39.6	1	4	0	0.00	29.821 
01:15	48.5	48.5	48.5	72	39.9	0	2	338	0.00	29.812 
01:20	48.3	48.3	48.3	72	39.7	1	3	45	0.00	29.812 
01:25	48.2	48.2	48.2	72	39.6	0	2	45	0.00	29.812 
01:30	48.0	48.0	48.0	72	39.4	1	4	68	0.00	29.809 
01:35	47.9	47.9	47.9	72	39.3	1	4	68	0.00	29.809 
01:40	47.7	47.7	47.7	72	39.1	0	2	68	0.00	29.809 
01:45	47.7	47.7	47.7	73	39.5	0	2	22	0.00	29.812 
01:50	47.6	47.6	47.6	72	39.0	1	5	45	0.00	29.812 
01:55	47.6	47.6	47.6	72	39.0	2	6	68	0.00	29.812 
02:00	47.6	47.6	47.6	72	39.0	1	5	135	0.00	29.826 
02:05	47.6	47.6	47.6	72	39.0	2	5	90	0.00	29.826 
02:10	47.6	47.6	47.6	71	38.7	2	10	22	0.00	29.826 
02:15	47.4	47.4	47.4	70	38.1	2	6	68	0.00	29.834 
02:20	47.3	47.3	47.3	71	38.4	1	4	45	0.00	29.834 
02:25	47.1	47.1	47.1	71	38.2	2	6	45	0.00	29.834 
02:30	46.8	46.8	46.8	70	37.5	3	15	45	0.00	29.842 
02:35	46.7	45.1	46.7	68	36.7	4	11	112	0.00	29.842 
02:40	46.4	46.4	46.4	68	36.4	3	7	68	0.00	29.842 
02:45	46.1	46.1	46.1	68	36.1	3	9	90	0.00	29.850 
02:50	45.8	45.8	45.8	69	36.2	2	6	90	0.00	29.850 
02:55	45.5	43.7	45.5	68	35.6	4	11	90	0.00	29.850 
03:00	45.2	45.2	45.2	68	35.3	3	9	68	0.00	29.859 
03:05	45.1	45.1	45.1	68	35.2	2	9	45	0.00	29.859 
03:10	44.8	44.8	44.8	69	35.3	2	8	45	0.00	29.859 
03:15	44.6	44.6	44.6	69	35.1	3	7	45	0.00	29.858 
03:20	44.3	44.3	44.3	69	34.8	1	5	45	0.00	29.858 
03:25	44.2	44.2	44.2	70	35.0	2	5	45	0.00	29.858 
03:30	44.1	44.1	44.1	70	35.0	2	7	45	0.00	29.865 
03:35	43.9	43.9	43.9	70	34.8	2	6	45	0.00	29.865 
03:40	43.8	43.8	43.8	70	34.7	2	5	90	0.00	29.865 
03:45	43.8	43.8	43.8	71	35.0	2	5	68	0.00	29.865 
03:50	43.6	43.6	43.6	71	34.8	2	6	45	0.00	29.865 
03:55	43.6	43.6	43.6	71	34.8	1	5	45	0.00	29.865 
04:00	43.5	43.5	43.5	71	34.7	1	5	112	0.00	29.874 
04:05	43.3	43.3	43.3	71	34.5	2	6	68	0.00	29.874 
04:10	43.3	43.3	43.3	72	34.9	1	3	68	0.00	29.874 
04:15	43.2	43.2	43.2	72	34.8	1	5	22	0.00	29.867 
04:20	43.1	43.1	43.1	72	34.7	2	10	22	0.00	29.867 
04:25	43.1	43.1	43.1	72	34.7	2	6	315	0.00	29.867 
04:30	42.9	42.9	42.9	72	34.5	1	4	135	0.00	29.861 
04:35	42.8	42.8	42.8	73	34.8	1	5	112	0.00	29.861 
04:40	42.6	42.6	42.6	73	34.6	2	10	112	0.00	29.861 
04:45	42.5	42.5	42.5	73	34.5	1	5	68	0.00	29.860 
04:50	42.3	42.3	42.3	73	34.3	1	6	180	0.00	29.860 
04:55	42.3	42.3	42.3	74	34.6	1	5	68	0.00	29.860 
05:00	42.2	42.2	42.2	74	34.5	1	4	90	0.00	29.859 
05:05	42.2	42.2	42.2	74	34.5	1	3	68	0.00	29.859 
05:10	42.1	42.1	42.1	75	34.8	1	4	292	0.00	29.859 
05:15	42.1	42.1	42.1	75	34.8	1	5	22	0.00	29.858 
05:20	41.9	41.9	41.9	75	34.6	1	4	45	0.00	29.858 
05:25	41.9	41.9	41.9	75	34.6	1	4	68	0.00	29.858 
05:30	41.9	41.9	41.9	76	34.9	1	4	158	0.00	29.863 
05:35	41.9	41.9	41.9	76	34.9	1	3	338	0.00	29.863 
05:40	41.9	41.9	41.9	76	34.9	1	5	45	0.00	29.863 
05:45	42.1	42.1	42.1	76	35.1	1	2	90	0.00	29.867 
05:50	42.1	42.1	42.1	76	35.1	1	5	68	0.00	29.867 
05:55	42.2	42.2	42.2	75	34.9	1	3	22	0.00	29.867 
06:00	42.3	42.3	42.3	75	35.0	1	4	315	0.00	29.874 
06:05	42.3	42.3	42.3	75	35.0	1	3	338	0.00	29.874 
06:10	42.5	42.5	42.5	75	35.1	1	5	45	0.00	29.874 
06:15	42.5	42.5	42.5	75	35.1	0	3	0	0.00	29.878 
06:20	42.5	42.5	42.5	75	35.1	0	3	292	0.00	29.878 
06:25	42.6	42.6	42.6	75	35.2	1	6	0	0.00	29.878 
06:30	42.6	42.6	42.6	75	35.2	0	2	112	0.00	29.886 
06:35	42.6	42.6	42.6	75	35.2	0	2	338	0.00	29.886 
06:40	42.6	42.6	42.6	75	35.2	1	5	45	0.00	29.886 
06:45	42.6	42.6	42.6	75	35.2	1	4	112	0.00	29.894 
06:50	42.6	42.6	42.6	75	35.2	0	3	338	0.00	29.894 
06:55	42.6	42.6	42.6	75	35.2	1	3	68	0.00	29.894 
07:00	42.6	42.6	42.6	75	35.2	0	3	68	0.00	29.901 
07:05	42.5	42.5	42.5	75	35.1	1	2	338	0.00	29.901 
07:10	42.3	42.3	42.3	75	35.0	0	2	315	0.00	29.901 
07:15	42.1	42.1	42.1	75	34.8	1	4	45	0.00	29.912 
07:20	41.8	41.8	41.8	76	34.8	0	2	45	0.00	29.912 
07:25	41.6	41.6	41.6	77	34.9	0	2	45	0.00	29.912 
07:30	41.3	41.3	41.3	77	34.6	0	4	68	0.00	29.920 
07:35	41.2	41.2	41.2	77	34.5	1	6	0	0.00	29.920 
07:40	41.2	41.2	41.2	78	34.9	1	4	202	0.00	29.920 
07:45	41.3	41.3	41.3	78	35.0	0	3	0	0.00	29.933 
07:50	41.5	41.5	41.5	78	35.2	0	4	135	0.00	29.933 
07:55	41.6	41.6	41.6	78	35.3	0	3	68	0.00	29.933 
08:00	41.8	41.8	41.8	77	35.1	0	2	338	0.00	29.938 
08:05	42.2	42.2	42.2	76	35.2	1	3	0	0.00	29.938 
08:10	42.3	42.3	42.3	75	35.0	1	4	22	0.00	29.938 
08:15	42.3	42.3	42.3	74	34.6	1	6	68	0.00	29.946 
08:20	42.3	42.3	42.3	74	34.6	1	4	90	0.00	29.946 
08:25	42.5	42.5	42.5	73	34.5	2	4	0	0.00	29.946 
08:30	42.9	42.9	42.9	73	34.9	2	5	112	0.00	29.955 
08:35	43.2	43.2	43.2	71	34.4	2	7	22	0.00	29.955 
08:40	43.3	43.3	43.3	70	34.2	2	9	22	0.00	29.955 
08:45	43.8	43.8	43.8	70	34.7	1	6	68	0.00	29.948 
08:50	43.9	43.9	43.9	69	34.4	3	7	68	0.00	29.948 
08:55	44.1	44.1	44.1	70	35.0	2	7	45	0.00	29.948 
09:00	44.3	44.3	44.3	69	34.8	3	6	45	0.00	29.951 
09:05	44.5	44.5	44.5	69	35.0	2	7	45	0.00	29.951 
09:10	44.6	44.6	44.6	69	35.1	2	7	112	0.00	29.951 
09:15	44.8	44.8	44.8	68	34.9	1	4	22	0.00	29.958 
09:20	44.9	44.9	44.9	67	34.6	2	6	22	0.00	29.958 
09:25	45.1	45.1	45.1	67	34.8	2	6	45	0.00	29.958 
09:30	45.4	45.4	45.4	67	35.1	2	7	68	0.00	29.961 
09:35	45.7	45.7	45.7	65	34.6	2	11	45	0.00	29.961 
09:40	45.8	45.8	45.8	65	34.7	2	7	22	0.00	29.961 
09:45	46.1	46.1	46.1	65	35.0	2	5	90	0.00	29.969 
09:50	46.4	46.4	46.4	66	35.7	1	4	315	0.00	29.969 
09:55	46.7	46.7	46.7	64	35.2	3	9	45	0.00	29.969 
10:00	46.8	46.8	46.8	63	34.9	2	7	22	0.00	29.969 
10:05	47.1	47.1	47.1	64	35.6	2	5	22	0.00	29.969 
10:10	47.6	47.6	47.6	64	36.0	2	5	45	0.00	29.969 
10:15	47.6	47.6	47.6	62	35.2	3	9	0	0.00	29.977 
10:20	47.7	47.7	47.7	63	35.7	1	4	68	0.00	29.977 
10:25	48.0	48.0	48.0	62	35.6	2	6	45	0.00	29.977 
10:30	48.2	48.2	48.2	60	35.0	2	8	22	0.00	29.984 
10:35	48.6	48.6	48.6	60	35.3	2	9	45	0.00	29.984 
10:40	48.9	48.9	48.9	60	35.6	2	6	90	0.00	29.984 
10:45	49.4	49.4	49.4	59	35.7	2	6	45	0.00	29.977 
10:50	49.5	49.5	49.5	59	35.8	3	10	45	0.00	29.977 
10:55	49.8	49.8	49.8	58	35.6	3	6	45	0.00	29.977 
11:00	49.9	49.9	49.9	58	35.7	1	10	0	0.00	29.988 
11:05	50.4	50.4	50.4	58	36.2	2	5	112	0.00	29.988 
11:10	50.8	50.8	50.8	58	36.6	2	6	45	0.00	29.988 
11:15	50.8	50.8	50.8	58	36.6	2	9	68	0.00	29.988 
11:20	51.0	51.0	51.0	57	36.3	2	5	112	0.00	29.988 
11:25	51.1	51.1	51.1	56	36.0	2	6	338	0.00	29.988 
11:30	51.1	51.1	51.1	56	36.0	2	6	0	0.00	29.989 
11:35	51.4	51.4	51.4	57	36.7	2	6	45	0.00	29.989 
11:40	51.6	51.6	51.6	58	37.3	2	6	158	0.00	29.989 
11:45	51.9	51.9	51.9	54	35.8	2	7	68	0.00	29.990 
11:50	52.5	52.5	52.5	57	37.7	1	4	338	0.00	29.990 
11:55	52.8	52.8	52.8	56	37.5	2	5	0	0.00	29.990 
12:00	53.2	53.2	53.2	54	37.0	2	6	90	0.00	29.991 
12:05	53.1	53.1	53.1	54	36.9	2	5	338	0.00	29.991 
12:10	53.1	53.1	53.1	53	36.4	2	7	315	0.00	29.991 
12:15	53.3	53.3	53.3	54	37.1	3	9	45	0.00	29.989 
12:20	53.6	53.6	53.6	52	36.4	3	9	112	0.00	29.989 
12:25	53.6	53.6	53.6	51	35.9	2	6	22	0.00	29.989 
12:30	53.9	53.9	53.9	51	36.2	2	5	22	0.00	29.989 
12:35	54.2	54.2	54.2	53	37.4	1	4	22	0.00	29.989 
12:40	54.4	54.4	54.4	49	35.6	1	4	22	0.00	29.989 
12:45	54.5	54.5	54.5	50	36.2	1	5	22	0.00	29.985 
12:50	54.5	54.5	54.5	49	35.7	2	8	338	0.00	29.985 
12:55	54.8	54.8	54.8	49	36.0	3	10	112	0.00	29.985 
13:00	55.1	55.1	55.1	52	37.8	2	10	45	0.00	29.982 
13:05	55.3	55.3	55.3	50	37.0	2	5	22	0.00	29.982 
13:10	55.7	55.7	55.7	50	37.3	2	7	112	0.00	29.982 
13:15	56.3	56.3	56.3	49	37.4	2	6	112	0.00	29.984 
13:20	56.3	56.3	56.3	49	37.4	1	4	315	0.00	29.984 
13:25	56.5	56.5	56.5	46	36.0	3	13	68	0.00	29.984 
13:30	56.2	56.2	56.2	45	35.1	4	13	0	0.00	29.984 
13:35	56.2	56.2	56.2	48	36.8	4	12	112	0.00	29.984 
13:40	56.5	56.5	56.5	52	39.1	2	7	0	0.00	29.984 
13:45	56.7	56.7	56.7	47	36.7	2	9	90	0.00	29.989 
13:50	57.2	57.2	57.2	46	36.6	2	8	112	0.00	29.989 
13:55	57.3	57.3	57.3	44	35.6	2	5	22	0.00	29.989 
14:00	57.5	57.5	57.5	43	35.2	3	8	112	0.00	29.994 
14:05	57.5	57.5	57.5	43	35.2	3	11	68	0.00	29.994 
14:10	57.5	57.5	57.5	45	36.3	3	14	112	0.00	29.994 
14:15	57.8	57.8	57.8	45	36.6	1	6	45	0.00	30.001 
14:20	58.1	58.1	58.1	46	37.4	2	7	112	0.00	30.001 
14:25	58.6	58.6	58.6	44	36.8	1	3	135	0.00	30.001 
14:30	58.7	58.7	58.7	40	34.4	1	5	22	0.00	30.003 
14:35	58.9	58.9	58.9	43	36.4	1	3	315	0.00	30.003 
14:40	58.9	58.9	58.9	39	34.0	1	5	0	0.00	30.003 
14:45	59.0	59.0	59.0	40	34.7	2	6	22	0.00	30.006 
14:50	59.2	59.2	59.2	41	35.5	1	5	338	0.00	30.006 
14:55	59.5	59.5	59.5	41	35.8	2	9	68	0.00	30.006 
15:00	59.3	59.3	59.3	35	31.7	2	6	90	0.00	30.009 
15:05	59.5	59.5	59.5	39	34.5	2	6	0	0.00	30.009 
15:10	59.5	59.5	59.5	35	31.8	2	7	0	0.00	30.009 
15:15	59.6	59.6	59.6	37	33.3	2	6	112	0.00	30.005 
15:20	59.6	59.6	59.6	35	31.9	2	4	90	0.00	30.005 
15:25	59.8	59.8	59.8	36	32.8	1	3	112	0.00	30.005 
15:30	59.8	59.8	59.8	38	34.1	1	6	315	0.00	30.004 
15:35	59.9	59.9	59.9	34	31.5	3	8	112	0.00	30.004 
15:40	60.2	60.2	60.2	33	31.0	2	6	90	0.00	30.004 
15:45	60.1	60.1	60.1	29	27.7	2	8	315	0.00	30.002 
15:50	60.2	60.2	60.2	32	30.2	1	3	338	0.00	30.002 
15:55	60.5	60.5	60.5	33	31.3	1	6	22	0.00	30.002 
16:00	60.7	60.7	60.7	33	31.4	2	9	112	0.00	30.008 
16:05	60.4	60.4	60.4	28	27.1	2	7	22	0.00	30.008 
16:10	60.4	60.4	60.4	31	29.6	1	7	90	0.00	30.008 
16:15	60.7	60.7	60.7	29	28.3	2	6	338	0.00	30.011 
16:20	60.7	60.7	60.7	30	29.1	1	5	45	0.00	30.011 
16:25	60.9	60.9	60.9	29	28.4	1	6	90	0.00	30.011 
16:30	61.2	61.2	61.2	27	27.0	1	5	0	0.00	30.009 
16:35	61.0	61.0	61.0	29	28.5	1	3	45	0.00	30.009 
16:40	61.2	61.2	61.2	27	27.0	1	9	22	0.00	30.009 
16:45	61.0	61.0	61.0	27	26.8	1	4	90	0.00	30.008 
16:50	61.5	61.5	61.5	30	29.8	1	5	0	0.00	30.008 
16:55	61.5	61.5	61.5	28	28.1	1	5	22	0.00	30.008 
17:00	61.3	61.3	61.3	26	26.1	1	5	22	0.00	30.006 
17:05	61.3	61.3	61.3	27	27.0	1	3	90	0.00	30.006 
17:10	61.3	61.3	61.3	27	27.0	1	5	68	0.00	30.006 
17:15	61.3	61.3	61.3	27	27.0	1	4	68	0.00	30.003 
17:20	61.3	61.3	61.3	27	27.0	2	7	45	0.00	30.003 
17:25	61.3	61.3	61.3	27	27.0	1	6	90	0.00	30.003 
17:30	61.2	61.2	61.2	26	26.0	2	6	112	0.00	30.003 
17:35	61.0	61.0	61.0	28	27.7	1	5	135	0.00	30.003 
17:40	61.0	61.0	61.0	26	25.9	2	7	338	0.00	30.003 
17:45	60.9	60.9	60.9	27	26.7	2	4	90	0.00	30.008 
17:50	60.7	60.7	60.7	26	25.6	1	5	22	0.00	30.008 
17:55	60.5	60.5	60.5	25	24.5	3	10	112	0.00	30.008 
18:00	60.4	60.4	60.4	26	25.4	1	2	45	0.00	30.007 
18:05	60.4	60.4	60.4	24	23.4	2	6	90	0.00	30.007 
18:10	60.2	60.2	60.2	23	22.3	2	10	90	0.00	30.007 
18:15	59.9	59.9	59.9	24	23.0	3	9	112	0.00	30.011 
18:20	59.9	59.9	59.9	26	24.9	1	2	68	0.00	30.011 
18:25	59.9	59.9	59.9	25	24.0	0	2	45	0.00	30.011 
18:30	59.9	59.9	59.9	25	24.0	1	6	112	0.00	30.015 
18:35	59.9	59.9	59.9	25	24.0	1	9	45	0.00	30.015 
18:40	59.6	59.6	59.6	24	22.8	2	6	112	0.00	30.015 
18:45	59.5	59.5	59.5	24	22.7	2	4	90	0.00	30.018 
18:50	59.3	59.3	59.3	25	23.5	1	5	68	0.00	30.018 
18:55	59.2	59.2	59.2	24	22.4	1	7	45	0.00	30.018 
19:00	59.2	59.2	59.2	24	22.4	2	6	45	0.00	30.022 
19:05	59.0	59.0	59.0	26	24.2	1	5	68	0.00	30.022 
19:10	58.7	58.7	58.7	25	23.0	2	5	90	0.00	30.022 
19:15	58.7	58.7	58.7	25	23.0	1	4	112	0.00	30.024 
19:20	58.6	58.6	58.6	27	24.7	1	3	22	0.00	30.024 
19:25	58.4	58.4	58.4	26	23.7	1	4	68	0.00	30.024 
19:30	58.3	58.3	58.3	26	23.6	1	3	22	0.00	30.026 
19:35	58.1	58.1	58.1	27	24.3	0	3	22	0.00	30.026 
19:40	57.8	57.8	57.8	27	24.0	0	2	90	0.00	30.026 
19:45	57.5	57.5	57.5	29	25.5	0	1	90	0.00	30.030 
19:50	57.2	57.2	57.2	30	26.1	0	1	90	0.00	30.030 
19:55	56.9	56.9	56.9	30	25.8	0	1	90	0.00	30.030 
20:00	56.6	56.6	56.6	30	25.5	0	1	45	0.00	30.027 
20:05	56.3	56.3	56.3	31	26.1	0	1	45	0.00	30.027 
20:10	56.0	56.0	56.0	32	26.6	0	1	45	0.00	30.027 
20:15	55.7	55.7	55.7	32	26.3	0	1	45	0.00	30.031 
20:20	55.6	55.6	55.6	32	26.2	0	1	45	0.00	30.031 
20:25	55.3	55.3	55.3	33	26.7	0	2	45	0.00	30.031 
20:30	55.0	55.0	55.0	34	27.2	0	1	45	0.00	30.039 
20:35	54.5	54.5	54.5	34	26.7	0	1	45	0.00	30.039 
20:40	54.1	54.1	54.1	35	27.1	0	0	---	0.00	30.039 
20:45	53.8	53.8	53.8	35	26.8	0	0	---	0.00	30.037 
20:50	53.3	53.3	53.3	37	27.7	0	0	---	0.00	30.037 
20:55	52.9	52.9	52.9	37	27.3	0	0	---	0.00	30.037 
21:00	52.5	52.5	52.5	38	27.6	0	1	45	0.00	30.042 
21:05	52.2	52.2	52.2	38	27.4	0	0	---	0.00	30.042 
21:10	51.7	51.7	51.7	39	27.6	0	0	---	0.00	30.042 
21:15	51.4	51.4	51.4	40	27.9	0	0	---	0.00	30.048 
21:20	51.3	51.3	51.3	41	28.4	0	0	---	0.00	30.048 
21:25	51.3	51.3	51.3	41	28.4	0	1	45	0.00	30.048 
21:30	51.1	51.1	51.1	41	28.2	0	0	---	0.00	30.055 
21:35	51.0	51.0	51.0	42	28.7	0	1	45	0.00	30.055 
21:40	51.0	51.0	51.0	43	29.3	0	1	45	0.00	30.055 
21:45	50.7	50.7	50.7	43	29.0	0	0	---	0.00	30.056 
21:50	50.4	50.4	50.4	44	29.3	0	0	---	0.00	30.056 
21:55	49.9	49.9	49.9	45	29.4	0	0	---	0.00	30.056 
22:00	49.6	49.6	49.6	45	29.1	0	0	---	0.00	30.063 
22:05	49.4	49.4	49.4	46	29.5	0	0	---	0.00	30.063 
22:10	49.4	49.4	49.4	46	29.5	0	0	---	0.00	30.063 
22:15	49.4	49.4	49.4	46	29.5	0	0	---	0.00	30.065 
22:20	49.2	49.2	49.2	46	29.3	0	0	---	0.00	30.065 
22:25	49.1	49.1	49.1	47	29.7	0	0	---	0.00	30.065 
22:30	48.8	48.8	48.8	47	29.5	0	0	---	0.00	30.067 
22:35	48.5	48.5	48.5	48	29.7	0	0	---	0.00	30.067 
22:40	48.2	48.2	48.2	47	28.9	0	0	---	0.00	30.067 
22:45	48.0	48.0	48.0	48	29.3	0	0	---	0.00	30.065 
22:50	47.9	47.9	47.9	49	29.7	0	1	45	0.00	30.065 
22:55	47.7	47.7	47.7	49	29.5	0	0	---	0.00	30.065 
23:00	47.4	47.4	47.4	49	29.2	0	0	---	0.00	30.073 
23:05	47.3	47.3	47.3	50	29.6	0	1	45	0.00	30.073 
23:10	47.1	47.1	47.1	50	29.4	0	0	---	0.00	30.073 
23:15	47.0	47.0	47.0	50	29.3	0	0	---	0.00	30.069 
23:20	46.8	46.8	46.8	51	29.6	0	0	---	0.00	30.069 
23:25	46.5	46.5	46.5	51	29.4	0	1	45	0.00	30.069 
23:30	46.4	46.4	46.4	51	29.3	0	0	---	0.00	30.070 
23:35	46.1	46.1	46.1	51	29.0	0	0	---	0.00	30.070 
23:40	45.8	45.8	45.8	52	29.2	0	0	---	0.00	30.070 
23:45	45.5	45.5	45.5	52	28.9	0	0	---	0.00	30.069 
23:50	45.2	45.2	45.2	53	29.1	0	0	---	0.00	30.069 
23:55	44.8	44.8	44.8	54	29.2	0	0	---	0.00	30.069 

CoCoRaHS
IN-AL-39
A2 Web Hosting
Creative Commons License
GoDaddy
search engine by freefind advanced

loaded 2018-11-14 04:02:21 • last modified 2010-11-18 10:43:29
Privacy PolicyDisclaimer
• wx.awcolley.com is powered by PmWiki v.2002016 •
• all content (unless otherwise noted) © 2018 A W Colley